Obelix — 7JAX — position and weather

sailwx.info

Track history (hours):
 
Tides and Currents Weather Stations Pressure Air Temp Water Temp Dewpoint Dewpoint Depression Visibility Wind Speed Wind Dir Waves Ship Positions

Obelix

Last reported at 2016-Dec-03 05:31 UTC. Time now 2016-Dec-03 17:44 UTC.
Position N 34°38' E 134°59'.

Length 74 m; draft 4.4 m.

Type: Tanker. MMSI: 432528000.

Date/timePositionNaut miles runAvg speedWind from/ knotsBaromVisibWave heightAir tempDewpointWater temp
2016-Dec-03 05:31N 34°38' E 134°59'1111.6
2016-Dec-03 04:33N 34°35' E 135°12'1110.7
2016-Dec-03 03:33N 34°33' E 135°25'0 0.2
2016-Dec-03 02:33N 34°33' E 135°25'0 0.0
2016-Dec-03 01:33N 34°33' E 135°25'0 0.0
2016-Dec-03 00:33N 34°33' E 135°25'0 0.0
2016-Dec-02 23:33N 34°33' E 135°25'0 0.0
2016-Dec-02 22:31N 34°33' E 135°25'5 5.1
2016-Dec-02 21:31N 34°32' E 135°19'0 0.0
2016-Dec-02 20:25N 34°32' E 135°19'0 0.0
2016-Dec-02 19:13N 34°32' E 135°19'0 0.1
2016-Dec-02 18:31N 34°32' E 135°19'0 0.1
2016-Dec-02 17:31N 34°33' E 135°19'0 0.0
2016-Dec-02 16:31N 34°33' E 135°19'0 0.0
2016-Dec-02 15:31N 34°32' E 135°19'0 0.0
2016-Dec-02 13:19N 34°32' E 135°19'0 0.1
2016-Dec-02 12:33N 34°33' E 135°19'1110.8
2016-Dec-02 11:33N 34°35' E 135°06'33 1.2
2016-Dec-01 07:21N 34°08' E 134°43'25410.1
2016-Nov-30 06:08N 35°08' E 139°43'712.3
2016-Nov-30 05:33N 35°14' E 139°46'1111.2
2016-Nov-30 04:33N 35°25' E 139°43'6 6.2
2016-Nov-30 03:33N 35°31' E 139°46'0 0.0
2016-Nov-30 02:33N 35°31' E 139°46'0 0.0
2016-Nov-30 01:33N 35°31' E 139°46'0 0.0
2016-Nov-30 00:33N 35°31' E 139°46'0 0.0
2016-Nov-29 23:33N 35°31' E 139°46'2 2.0
2016-Nov-29 22:33N 35°30' E 139°44'2 2.2
2016-Nov-29 21:33N 35°28' E 139°44'0 0.0
2016-Nov-29 20:33N 35°28' E 139°44'0 0.1
2016-Nov-29 19:33N 35°28' E 139°44'1 0.5
2016-Nov-29 18:34N 35°27' E 139°44'1111.0
2016-Nov-29 17:34N 35°16' E 139°46'1211.8
2016-Nov-29 16:33N 35°04' E 139°45'  
2016-Nov-26 14:27N 34°37' E 135°02'7 8.2
2016-Nov-26 13:33N 34°30' E 135°04'1311.6
2016-Nov-26 12:24N 34°17' E 134°59'1112.1
2016-Nov-26 11:31N 34°06' E 134°60'24210.0
2016-Nov-25 11:21N 35°09' E 139°44'911.9
2016-Nov-25 10:34N 35°19' E 139°43'1111.0
2016-Nov-25 09:34N 35°29' E 139°50'7 0.9
2016-Nov-25 02:33N 35°30' E 139°58'2 1.6
2016-Nov-25 01:27N 35°29' E 139°56'0 0.0
2016-Nov-25 00:30N 35°29' E 139°56'0 0.0
2016-Nov-24 23:33N 35°29' E 139°56'0 0.0
2016-Nov-24 22:33N 35°29' E 139°56'0 0.0
2016-Nov-24 21:33N 35°29' E 139°56'0 0.0
2016-Nov-24 20:30N 35°29' E 139°56'0 0.0
2016-Nov-24 19:30N 35°29' E 139°56'0 0.0
2016-Nov-24 18:30N 35°29' E 139°56'0 0.0
2016-Nov-24 17:33N 35°29' E 139°56'0 0.0
2016-Nov-24 16:30N 35°29' E 139°56'0 0.0
2016-Nov-24 15:27N 35°29' E 139°56'0 0.0
2016-Nov-24 14:27N 35°29' E 139°56'0 0.0
2016-Nov-24 13:33N 35°29' E 139°56'0 0.0
2016-Nov-24 12:24N 35°29' E 139°56'0 0.1
2016-Nov-24 11:28N 35°29' E 139°56'0 0.1
2016-Nov-24 10:33N 35°29' E 139°56'0 0.0
2016-Nov-24 09:32N 35°29' E 139°56'0 0.0
2016-Nov-24 08:33N 35°29' E 139°56'0 0.0
2016-Nov-24 07:31N 35°29' E 139°56'0 0.0
2016-Nov-24 06:33N 35°29' E 139°56'0 0.0
2016-Nov-24 05:32N 35°29' E 139°56'0 0.0
2016-Nov-24 04:32N 35°29' E 139°56'0 0.0
2016-Nov-24 03:30N 35°29' E 139°56'0 0.0
2016-Nov-24 02:29N 35°29' E 139°56'0 0.1
2016-Nov-24 01:30N 35°29' E 139°56'0 0.0
2016-Nov-24 00:33N 35°29' E 139°56'0 0.0
2016-Nov-23 23:28N 35°29' E 139°56'0 0.1
2016-Nov-23 22:32N 35°29' E 139°56'0 0.0
2016-Nov-23 21:23N 35°29' E 139°56'5 5.6
2016-Nov-23 20:33N 35°27' E 139°50'1110.5
2016-Nov-23 19:34N 35°18' E 139°45'1111.0
2016-Nov-23 18:33N 35°07' E 139°46'  
Track history (hours):
 
Tides and Currents Weather Stations Pressure Air Temp Water Temp Dewpoint Dewpoint Depression Visibility Wind Speed Wind Dir Waves Ship Positions

Obelix

Last reported at 2016-Dec-03 05:31 UTC. Time now 2016-Dec-03 17:44 UTC.
Position N 34°38' E 134°59'.

Length 74 m; draft 4.4 m.

Type: Tanker. MMSI: 432528000.

Date/timePositionNaut miles runAvg speedWind from/ knotsBaromVisibWave heightAir tempDewpointWater temp
2016-Dec-03 05:31N 34°38' E 134°59'1111.6
2016-Dec-03 04:33N 34°35' E 135°12'1110.7
2016-Dec-03 03:33N 34°33' E 135°25'0 0.2
2016-Dec-03 02:33N 34°33' E 135°25'0 0.0
2016-Dec-03 01:33N 34°33' E 135°25'0 0.0
2016-Dec-03 00:33N 34°33' E 135°25'0 0.0
2016-Dec-02 23:33N 34°33' E 135°25'0 0.0
2016-Dec-02 22:31N 34°33' E 135°25'5 5.1
2016-Dec-02 21:31N 34°32' E 135°19'0 0.0
2016-Dec-02 20:25N 34°32' E 135°19'0 0.0
2016-Dec-02 19:13N 34°32' E 135°19'0 0.1
2016-Dec-02 18:31N 34°32' E 135°19'0 0.1
2016-Dec-02 17:31N 34°33' E 135°19'0 0.0
2016-Dec-02 16:31N 34°33' E 135°19'0 0.0
2016-Dec-02 15:31N 34°32' E 135°19'0 0.0
2016-Dec-02 13:19N 34°32' E 135°19'0 0.1
2016-Dec-02 12:33N 34°33' E 135°19'1110.8
2016-Dec-02 11:33N 34°35' E 135°06'33 1.2
2016-Dec-01 07:21N 34°08' E 134°43'25410.1
2016-Nov-30 06:08N 35°08' E 139°43'712.3
2016-Nov-30 05:33N 35°14' E 139°46'1111.2
2016-Nov-30 04:33N 35°25' E 139°43'6 6.2
2016-Nov-30 03:33N 35°31' E 139°46'0 0.0
2016-Nov-30 02:33N 35°31' E 139°46'0 0.0
2016-Nov-30 01:33N 35°31' E 139°46'0 0.0
2016-Nov-30 00:33N 35°31' E 139°46'0 0.0
2016-Nov-29 23:33N 35°31' E 139°46'2 2.0
2016-Nov-29 22:33N 35°30' E 139°44'2 2.2
2016-Nov-29 21:33N 35°28' E 139°44'0 0.0
2016-Nov-29 20:33N 35°28' E 139°44'0 0.1
2016-Nov-29 19:33N 35°28' E 139°44'1 0.5
2016-Nov-29 18:34N 35°27' E 139°44'1111.0
2016-Nov-29 17:34N 35°16' E 139°46'1211.8
2016-Nov-29 16:33N 35°04' E 139°45'  
2016-Nov-26 14:27N 34°37' E 135°02'7 8.2
2016-Nov-26 13:33N 34°30' E 135°04'1311.6
2016-Nov-26 12:24N 34°17' E 134°59'1112.1
2016-Nov-26 11:31N 34°06' E 134°60'24210.0
2016-Nov-25 11:21N 35°09' E 139°44'911.9
2016-Nov-25 10:34N 35°19' E 139°43'1111.0
2016-Nov-25 09:34N 35°29' E 139°50'7 0.9
2016-Nov-25 02:33N 35°30' E 139°58'2 1.6
2016-Nov-25 01:27N 35°29' E 139°56'0 0.0
2016-Nov-25 00:30N 35°29' E 139°56'0 0.0
2016-Nov-24 23:33N 35°29' E 139°56'0 0.0
2016-Nov-24 22:33N 35°29' E 139°56'0 0.0
2016-Nov-24 21:33N 35°29' E 139°56'0 0.0
2016-Nov-24 20:30N 35°29' E 139°56'0 0.0
2016-Nov-24 19:30N 35°29' E 139°56'0 0.0
2016-Nov-24 18:30N 35°29' E 139°56'0 0.0
2016-Nov-24 17:33N 35°29' E 139°56'0 0.0
2016-Nov-24 16:30N 35°29' E 139°56'0 0.0
2016-Nov-24 15:27N 35°29' E 139°56'0 0.0
2016-Nov-24 14:27N 35°29' E 139°56'0 0.0
2016-Nov-24 13:33N 35°29' E 139°56'0 0.0
2016-Nov-24 12:24N 35°29' E 139°56'0 0.1
2016-Nov-24 11:28N 35°29' E 139°56'0 0.1
2016-Nov-24 10:33N 35°29' E 139°56'0 0.0
2016-Nov-24 09:32N 35°29' E 139°56'0 0.0
2016-Nov-24 08:33N 35°29' E 139°56'0 0.0
2016-Nov-24 07:31N 35°29' E 139°56'0 0.0
2016-Nov-24 06:33N 35°29' E 139°56'0 0.0
2016-Nov-24 05:32N 35°29' E 139°56'0 0.0
2016-Nov-24 04:32N 35°29' E 139°56'0 0.0
2016-Nov-24 03:30N 35°29' E 139°56'0 0.0
2016-Nov-24 02:29N 35°29' E 139°56'0 0.1
2016-Nov-24 01:30N 35°29' E 139°56'0 0.0
2016-Nov-24 00:33N 35°29' E 139°56'0 0.0
2016-Nov-23 23:28N 35°29' E 139°56'0 0.1
2016-Nov-23 22:32N 35°29' E 139°56'0 0.0
2016-Nov-23 21:23N 35°29' E 139°56'5 5.6
2016-Nov-23 20:33N 35°27' E 139°50'1110.5
2016-Nov-23 19:34N 35°18' E 139°45'1111.0
2016-Nov-23 18:33N 35°07' E 139°46'  

Dump ship's entire track history